Aberdeen / Amory, MS

5:36 PM CST on December 08, 2019 (GMT -0600)
Aberdeen / Amory

Weather History for KM40 - June, 2019

Change the Weather History Date:

Tuesday, June 11, 2019

  Actual Average (KCBM) Record (KCBM)
Temperature  
Mean Temperature 66 °F -  
Max Temperature 78 °F 85 °F 98 °F (2007)
Min Temperature 55 °F 66 °F 60 °F (2019)
Cooling Degree Days 2    
Growing Degree Days 16 (Base 50)    
Moisture  
Dew Point 67 °F    
Average Humidity 100    
Maximum Humidity 100    
Minimum Humidity 100    
Precipitation  
Precipitation 0.00 in - - ()
Sea Level Pressure  
Sea Level Pressure 30.09 in    
Wind  
Wind Speed 5 mph ()    
Max Wind Speed 16 mph    
Max Gust Speed 21 mph    
Visibility 9.4 miles    
Events      
Averages and records for this station are not official NWS values.
T = Trace of Precipitation, MM = Missing Value Source: Averaged Metar Reports

Daily Weather History Graph

Daily Weather History Graph

Search for Another Location

Airport or City:

Astronomy

Jun. 11, 2019 Rise Set
Actual Time 5:42 AM CDT 8:04 PM CDT
Civil Twilight 5:13 AM CDT 8:33 PM CDT
Nautical Twilight 4:37 AM CDT 9:09 PM CDT
Astronomical Twilight 3:58 AM CDT 9:48 PM CDT
Moon 2:22 PM CDT (6/11) 2:06 AM CDT (6/11)
Length of Visible Light 15h 20m
Length of Day
14h 22m
Waxing Gibbous, 66% of the Moon is Illuminated
Jun 11
Waxing Gibbous
Jun 17
Full
Jun 25
Last Quarter
Jul 2
New
Jul 9
First Quarter

Hourly Weather History & Observations

Time (CDT) Temp. Dew Point Humidity Pressure Visibility Wind Dir Wind Speed Gust Speed Precip Events Conditions
12:15 AM 68.0 °F 68.0 °F 100% 30.14 in 10.0 mi North 5.8 mph - N/A   Clear
12:35 AM 66.2 °F 66.2 °F 100% 30.13 in 10.0 mi North 4.6 mph - N/A   Clear
12:55 AM 64.4 °F 64.4 °F 100% 30.13 in 10.0 mi North 4.6 mph - N/A   Clear
1:15 AM 64.4 °F 64.4 °F 100% 30.13 in 10.0 mi North 5.8 mph - N/A   Clear
1:35 AM 62.6 °F 62.6 °F 100% 30.13 in 10.0 mi North 4.6 mph - N/A   Clear
1:55 AM 60.8 °F 60.8 °F 100% 30.13 in 10.0 mi North 3.5 mph - N/A   Clear
2:15 AM 60.8 °F 60.8 °F 100% 30.13 in 10.0 mi Calm Calm - N/A   Clear
2:35 AM 59.0 °F 59.0 °F 100% 30.12 in 10.0 mi North 4.6 mph - N/A   Clear
2:55 AM 59.0 °F 59.0 °F 100% 30.12 in 10.0 mi Calm Calm - N/A   Clear
3:15 AM 57.2 °F 57.2 °F 100% 30.12 in 10.0 mi North 3.5 mph - N/A   Clear
3:35 AM 59.0 °F 59.0 °F 100% 30.12 in 10.0 mi Calm Calm - N/A   Clear
3:55 AM 55.4 °F 55.4 °F 100% 30.12 in 10.0 mi Calm Calm - N/A   Clear
4:15 AM - - N/A% 30.12 in 10.0 mi Calm Calm - N/A   Clear
4:35 AM 55.4 °F 55.4 °F 100% 30.12 in 10.0 mi Calm Calm - N/A   Clear
4:55 AM 55.4 °F 55.4 °F 100% 30.13 in 10.0 mi Calm Calm - N/A   Clear
5:15 AM - - N/A% 30.14 in 10.0 mi Calm Calm - N/A   Clear
5:35 AM 57.2 °F 57.2 °F 100% 30.14 in 10.0 mi North 4.6 mph - N/A   Clear
5:55 AM 57.2 °F 57.2 °F 100% 30.15 in 10.0 mi North 4.6 mph - N/A   Clear
6:15 AM 57.2 °F 57.2 °F 100% 30.15 in 10.0 mi North 4.6 mph - N/A   Clear
6:35 AM 57.2 °F 57.2 °F 100% 30.15 in 9.0 mi North 5.8 mph - N/A   Clear
6:55 AM 57.2 °F 57.2 °F 100% 30.16 in 10.0 mi North 6.9 mph - N/A   Clear
7:15 AM 59.0 °F 59.0 °F 100% 30.16 in 8.0 mi North 5.8 mph - N/A   Clear
7:35 AM - - N/A% 30.16 in 10.0 mi North 6.9 mph - N/A   Clear
7:55 AM 62.6 °F 62.6 °F 100% 30.17 in 7.0 mi North 6.9 mph - N/A   Clear
8:15 AM 64.4 °F 64.4 °F 100% 30.17 in 9.0 mi NNE 8.1 mph - N/A   Clear
8:35 AM - - N/A% 30.16 in 9.0 mi NE 8.1 mph - N/A   Clear
8:55 AM - - N/A% - - North - - N/A   Unknown
9:15 AM 69.8 °F 69.8 °F 100% 30.15 in - NE 9.2 mph 18.4 mph N/A   Unknown
9:35 AM 71.6 °F 71.6 °F 100% 30.14 in 8.0 mi NNE 16.1 mph - N/A   Unknown
9:55 AM 71.6 °F 71.6 °F 100% 30.14 in 9.0 mi NE 9.2 mph 20.7 mph N/A   Clear
10:35 AM 73.4 °F 73.4 °F 100% 30.13 in 10.0 mi North 12.7 mph - N/A   Clear
10:55 AM 73.4 °F 73.4 °F 100% 30.13 in 10.0 mi North 11.5 mph - N/A   Clear
11:15 AM 75.2 °F 75.2 °F 100% 30.13 in 9.0 mi Variable 6.9 mph 12.7 mph N/A   Clear
11:35 AM 75.2 °F 75.2 °F 100% 30.12 in 10.0 mi North 11.5 mph - N/A   Clear
11:55 AM 77.0 °F 77.0 °F 100% 30.11 in 8.0 mi North 9.2 mph - N/A   Clear
12:15 PM 77.0 °F 77.0 °F 100% 30.11 in 6.0 mi NNE 12.7 mph - N/A   Clear
12:35 PM 78.8 °F 78.8 °F 100% 30.09 in 10.0 mi North 10.4 mph 18.4 mph N/A   Clear
12:55 PM - - N/A% 30.08 in 9.0 mi North 6.9 mph 16.1 mph N/A   Clear
1:15 PM 78.8 °F 78.8 °F 100% 30.08 in 10.0 mi NNE 9.2 mph - N/A   Clear
1:35 PM - - N/A% 30.08 in 10.0 mi North 8.1 mph 13.8 mph N/A   Clear
1:55 PM 78.8 °F 78.8 °F 100% 30.06 in 8.0 mi North 9.2 mph 15.0 mph N/A   Clear
2:15 PM 78.8 °F 78.8 °F 100% 30.06 in 9.0 mi North 12.7 mph - N/A   Clear
2:35 PM 78.8 °F 78.8 °F 100% 30.06 in 10.0 mi North 12.7 mph - N/A   Clear
2:55 PM 78.8 °F 78.8 °F 100% 30.05 in 9.0 mi North 11.5 mph - N/A   Clear
3:15 PM 77.0 °F 77.0 °F 100% 30.05 in 10.0 mi North 10.4 mph - N/A   Clear
3:35 PM 77.0 °F 77.0 °F 100% 30.05 in 9.0 mi North 10.4 mph 17.3 mph N/A   Clear
3:55 PM 77.0 °F 77.0 °F 100% 30.04 in 9.0 mi North 11.5 mph - N/A   Clear
4:15 PM 77.0 °F 77.0 °F 100% 30.04 in 10.0 mi North 9.2 mph 16.1 mph N/A   Clear
4:35 PM 77.0 °F 77.0 °F 100% 30.03 in 9.0 mi North 9.2 mph - N/A   Clear
4:55 PM 77.0 °F 77.0 °F 100% 30.03 in 9.0 mi North 9.2 mph - N/A   Clear
5:15 PM 75.2 °F 75.2 °F 100% 30.03 in 10.0 mi North 8.1 mph - N/A   Clear
5:35 PM 75.2 °F 75.2 °F 100% 30.02 in 6.0 mi North 12.7 mph - N/A   Clear
5:55 PM 75.2 °F 75.2 °F 100% 30.02 in 8.0 mi North 10.4 mph 17.3 mph N/A   Clear
6:15 PM 73.4 °F 73.4 °F 100% 30.02 in 10.0 mi North 8.1 mph - N/A   Clear
6:35 PM 71.6 °F 71.6 °F 100% 30.02 in 9.0 mi North 5.8 mph - N/A   Clear
6:55 PM 71.6 °F 71.6 °F 100% 30.01 in 7.0 mi North 6.9 mph - N/A   Clear
7:15 PM 71.6 °F 71.6 °F 100% 30.02 in 10.0 mi NNE 5.8 mph - N/A   Clear
7:35 PM 69.8 °F 69.8 °F 100% 30.02 in 9.0 mi North - - N/A   Clear
7:55 PM 68.0 °F 68.0 °F 100% 30.02 in 10.0 mi Calm Calm - N/A   Clear
8:15 PM 66.2 °F 66.2 °F 100% 30.01 in 9.0 mi Calm Calm - N/A   Clear
8:35 PM 64.4 °F 64.4 °F 100% 30.02 in 10.0 mi Calm Calm - N/A   Clear
8:55 PM 62.6 °F 62.6 °F 100% 30.01 in 10.0 mi Calm Calm - N/A   Clear
9:15 PM 62.6 °F 62.6 °F 100% 30.02 in 10.0 mi Calm Calm - N/A   Clear
9:35 PM 60.8 °F 60.8 °F 100% 30.02 in 10.0 mi Calm Calm - N/A   Clear
9:55 PM 59.0 °F 59.0 °F 100% 30.02 in 10.0 mi Calm Calm - N/A   Clear
10:15 PM 59.0 °F 59.0 °F 100% 30.03 in 10.0 mi Calm Calm - N/A   Clear
10:35 PM - - N/A% 30.03 in 10.0 mi Calm Calm - N/A   Clear
10:55 PM 59.0 °F 59.0 °F 100% 30.02 in 10.0 mi Calm Calm - N/A   Clear
11:15 PM 57.2 °F 57.2 °F 100% 30.02 in 10.0 mi NNW 3.5 mph - N/A   Clear
11:35 PM 59.0 °F 59.0 °F 100% 30.02 in 9.0 mi Calm Calm - N/A   Clear
11:55 PM 57.2 °F 57.2 °F 100% 30.02 in 10.0 mi Calm Calm - N/A   Clear